createdAt,value
2019-05-06T00:02:26.398Z,7.95
2019-05-06T00:04:58.678Z,9.93
2019-05-06T00:07:31.038Z,7.80
2019-05-06T00:10:05.952Z,10.08
2019-05-06T00:12:38.208Z,9.50
2019-05-06T00:17:44.447Z,11.88
2019-05-06T00:20:15.988Z,12.35
2019-05-06T00:22:49.019Z,10.15
2019-05-06T00:25:28.698Z,9.05
2019-05-06T00:28:37.932Z,11.60
2019-05-06T00:31:16.510Z,10.45
2019-05-06T00:33:48.268Z,6.92
2019-05-06T00:36:21.118Z,7.33
2019-05-06T00:38:56.373Z,13.75
2019-05-06T00:41:36.341Z,8.15
2019-05-06T00:44:07.032Z,12.28
2019-05-06T00:49:10.158Z,11.08
2019-05-06T00:54:18.078Z,11.55
2019-05-06T00:56:50.227Z,6.03
2019-05-06T01:01:54.052Z,5.87
2019-05-06T01:04:28.131Z,12.65
2019-05-06T01:07:00.489Z,4.85
2019-05-06T01:09:34.591Z,9.63
2019-05-06T01:12:08.308Z,8.78
2019-05-06T01:14:44.868Z,16.67
2019-05-06T01:17:17.518Z,7.83
2019-05-06T01:19:50.549Z,10.60
2019-05-06T01:22:24.653Z,7.22
2019-05-06T01:24:56.908Z,9.18
2019-05-06T01:27:29.038Z,6.12
2019-05-06T01:30:01.491Z,9.48
2019-05-06T01:32:34.573Z,6.65
2019-05-06T01:35:08.089Z,7.05
2019-05-06T01:37:44.012Z,5.55
2019-05-06T01:40:38.169Z,9.23
2019-05-06T01:43:18.889Z,9.38
2019-05-06T01:45:53.515Z,9.33
2019-05-06T01:48:44.301Z,8.45
2019-05-06T01:51:18.577Z,9.55
2019-05-06T01:53:54.422Z,12.10
2019-05-06T01:56:26.688Z,8.83
2019-05-06T01:58:59.338Z,14.65
2019-05-06T02:01:33.898Z,9.70
2019-05-06T02:04:05.451Z,20.35
2019-05-06T02:06:37.838Z,8.20
2019-05-06T02:09:16.779Z,11.12
2019-05-06T02:11:48.880Z,6.03
2019-05-06T02:14:21.059Z,9.83
2019-05-06T02:16:54.598Z,5.80
2019-05-06T02:19:26.810Z,7.28
2019-05-06T02:22:16.956Z,5.55
2019-05-06T02:24:58.898Z,9.35
2019-05-06T02:27:31.118Z,9.23
2019-05-06T02:33:10.511Z,8.33
2019-05-06T02:36:06.627Z,9.65
2019-05-06T02:38:47.051Z,8.38
2019-05-06T02:41:13.405Z,7.90
2019-05-06T02:43:46.081Z,13.28
2019-05-06T02:46:18.539Z,8.38
2019-05-06T02:51:45.279Z,6.83
2019-05-06T02:56:48.759Z,6.03
2019-05-06T02:59:24.096Z,4.80
2019-05-06T03:01:56.232Z,6.12
2019-05-06T03:04:28.459Z,4.67
2019-05-06T03:09:33.982Z,5.12
2019-05-06T03:12:05.722Z,4.12
2019-05-06T03:14:39.721Z,5.37
2019-05-06T03:17:14.064Z,4.30
2019-05-06T03:19:47.593Z,4.12
2019-05-06T03:22:44.860Z,3.60
2019-05-06T03:25:24.210Z,4.53
2019-05-06T03:27:56.625Z,4.05
2019-05-06T03:30:29.280Z,4.60
2019-05-06T03:33:30.952Z,3.37
2019-05-06T03:35:49.899Z,4.60
2019-05-06T03:38:09.532Z,4.78
2019-05-06T03:40:45.644Z,4.65
2019-05-06T03:43:18.880Z,5.55
2019-05-06T03:46:10.026Z,4.45
2019-05-06T03:48:44.647Z,5.35
2019-05-06T03:51:17.036Z,5.05
2019-05-06T03:53:49.838Z,5.25
2019-05-06T03:56:24.020Z,3.80
2019-05-06T03:58:58.492Z,3.85
2019-05-06T04:01:33.558Z,3.00
2019-05-06T04:04:05.278Z,2.65
2019-05-06T04:06:37.689Z,2.58
2019-05-06T04:09:13.042Z,2.47
2019-05-06T04:11:44.640Z,2.90
2019-05-06T04:14:18.640Z,2.35
2019-05-06T04:16:59.682Z,2.52
2019-05-06T04:19:39.781Z,2.60
2019-05-06T04:22:33.683Z,2.40
2019-05-06T04:25:23.401Z,2.00
2019-05-06T04:27:58.041Z,2.45
2019-05-06T04:30:33.202Z,1.90
2019-05-06T04:33:05.420Z,1.98
2019-05-06T04:35:37.991Z,2.15
2019-05-06T04:38:13.639Z,2.15
2019-05-06T04:40:44.833Z,2.10
2019-05-06T04:43:17.210Z,2.37
2019-05-06T04:45:49.758Z,2.10
2019-05-06T04:50:54.563Z,2.30
2019-05-06T04:53:27.338Z,1.77
2019-05-06T04:55:59.718Z,2.20
2019-05-06T04:58:33.517Z,2.20
2019-05-06T05:01:06.085Z,2.12
2019-05-06T05:03:38.787Z,1.77
2019-05-06T05:06:13.579Z,2.37
2019-05-06T05:08:47.229Z,2.20
2019-05-06T05:11:38.009Z,2.15
2019-05-06T05:14:32.807Z,1.90
2019-05-06T05:17:12.833Z,1.90
2019-05-06T05:19:45.029Z,2.00
2019-05-06T05:24:48.139Z,1.85
2019-05-06T05:29:52.182Z,1.90
2019-05-06T05:32:26.812Z,1.75
2019-05-06T05:34:58.389Z,1.95
2019-05-06T05:40:03.084Z,1.95
2019-05-06T05:43:02.922Z,1.65
2019-05-06T05:45:34.818Z,1.42
2019-05-06T05:50:44.350Z,1.10
2019-05-06T05:53:16.666Z,1.75
2019-05-06T05:58:20.158Z,1.40
2019-05-06T06:00:52.478Z,2.00
2019-05-06T06:03:24.908Z,1.50
2019-05-06T06:05:57.169Z,1.70
2019-05-06T06:11:05.568Z,1.35
2019-05-06T06:13:38.148Z,1.75
2019-05-06T06:16:38.058Z,1.40
2019-05-06T06:19:27.538Z,1.25
2019-05-06T06:22:03.106Z,1.40
2019-05-06T06:24:36.599Z,1.82
2019-05-06T06:27:08.782Z,1.40
2019-05-06T06:32:19.391Z,1.40
2019-05-06T06:35:07.555Z,1.37
2019-05-06T06:37:47.778Z,1.20
2019-05-06T06:40:22.318Z,1.50
2019-05-06T06:42:59.099Z,1.15
2019-05-06T06:45:32.627Z,1.30
2019-05-06T06:48:04.943Z,1.22
2019-05-06T06:50:37.398Z,1.55
2019-05-06T06:53:09.779Z,1.12
2019-05-06T06:58:34.930Z,1.32
2019-05-06T07:01:19.107Z,1.42
2019-05-06T07:04:10.249Z,1.25
2019-05-06T07:06:42.390Z,1.57
2019-05-06T07:09:14.449Z,1.50
2019-05-06T07:11:47.859Z,1.30
2019-05-06T07:14:22.485Z,1.20
2019-05-06T07:16:54.278Z,1.30
2019-05-06T07:22:06.878Z,1.30
2019-05-06T07:24:38.949Z,1.00
2019-05-06T07:27:22.817Z,1.70
2019-05-06T07:29:56.468Z,1.20
2019-05-06T07:32:28.699Z,1.42
2019-05-06T07:35:02.281Z,1.20
2019-05-06T07:37:35.876Z,1.62
2019-05-06T07:40:09.509Z,1.00
2019-05-06T07:42:46.758Z,1.07
2019-05-06T07:45:38.179Z,1.20
2019-05-06T07:48:12.896Z,1.47
2019-05-06T07:50:45.343Z,1.50
2019-05-06T07:55:48.588Z,1.32
2019-05-06T07:58:22.618Z,1.80
2019-05-06T08:00:54.338Z,1.50
2019-05-06T08:03:26.448Z,1.45
2019-05-06T08:08:33.443Z,2.00
2019-05-06T08:11:05.199Z,1.72
2019-05-06T08:16:09.078Z,1.05
2019-05-06T08:18:42.513Z,1.80
2019-05-06T08:21:22.338Z,2.15
2019-05-06T08:23:54.578Z,9.43
2019-05-06T08:26:26.757Z,7.90
2019-05-06T08:31:29.943Z,8.90
2019-05-06T08:34:02.647Z,10.93
2019-05-06T08:37:12.216Z,7.90
2019-05-06T08:39:46.124Z,7.97
2019-05-06T08:42:18.818Z,4.75
2019-05-06T08:47:22.332Z,4.83
2019-05-06T08:50:16.820Z,7.80
2019-05-06T08:53:16.601Z,4.58
2019-05-06T08:55:49.060Z,5.95
2019-05-06T08:58:24.948Z,7.28
2019-05-06T09:01:05.558Z,4.03
2019-05-06T09:03:37.710Z,5.47
2019-05-06T09:06:26.055Z,4.97
2019-05-06T09:08:45.309Z,8.00
2019-05-06T09:11:17.468Z,6.90
2019-05-06T09:13:52.155Z,8.95
2019-05-06T09:16:24.099Z,7.17
2019-05-06T09:21:27.338Z,5.92
2019-05-06T09:24:02.105Z,7.25
2019-05-06T09:26:52.031Z,3.20
2019-05-06T09:30:02.905Z,2.42
2019-05-06T09:32:42.887Z,2.20
2019-05-06T09:35:15.628Z,2.12
2019-05-06T09:37:47.891Z,3.02
2019-05-06T09:40:22.628Z,2.47
2019-05-06T09:42:54.128Z,3.00
2019-05-06T09:48:14.101Z,1.70
2019-05-06T09:50:47.752Z,1.20
2019-05-06T09:53:25.412Z,1.55
2019-05-06T09:56:23.098Z,1.40
2019-05-06T09:58:55.448Z,1.40
2019-05-06T10:04:03.292Z,1.40
2019-05-06T10:06:34.849Z,1.20
2019-05-06T10:11:42.342Z,1.20
2019-05-06T10:14:14.878Z,1.65
2019-05-06T10:16:47.348Z,1.47
2019-05-06T10:19:22.389Z,1.70
2019-05-06T10:21:54.069Z,1.37
2019-05-06T10:26:59.058Z,1.40
2019-05-06T10:29:45.118Z,1.22
2019-05-06T10:32:29.318Z,1.37
2019-05-06T10:35:02.786Z,1.50
2019-05-06T10:38:00.000Z,1.40
2019-05-06T10:40:44.114Z,1.62
2019-05-06T10:43:22.057Z,1.32
2019-05-06T10:45:54.160Z,1.37
2019-05-06T10:48:27.179Z,1.60
2019-05-06T10:51:05.909Z,1.20
2019-05-06T10:53:38.149Z,1.55
2019-05-06T10:56:28.153Z,1.22
2019-05-06T10:59:02.502Z,1.25
2019-05-06T11:01:38.058Z,1.40
2019-05-06T11:04:10.118Z,1.57
2019-05-06T11:06:43.036Z,1.32
2019-05-06T11:09:15.659Z,1.35
2019-05-06T11:11:47.642Z,1.17
2019-05-06T11:17:05.248Z,1.95
2019-05-06T11:19:37.597Z,1.50
2019-05-06T11:24:42.151Z,1.60
2019-05-06T11:27:27.473Z,1.30
2019-05-06T11:29:49.939Z,2.00
2019-05-06T11:32:50.237Z,1.30
2019-05-06T11:35:32.487Z,1.10
2019-05-06T11:38:12.034Z,1.70
2019-05-06T11:40:44.138Z,1.22
2019-05-06T11:43:16.469Z,1.25
2019-05-06T11:45:48.719Z,1.40
2019-05-06T11:48:22.289Z,1.47
2019-05-06T11:50:57.968Z,1.22
2019-05-06T11:53:30.038Z,1.35
2019-05-06T11:58:44.838Z,1.20
2019-05-06T12:01:28.948Z,1.17
2019-05-06T12:04:02.681Z,1.10
2019-05-06T12:06:38.139Z,1.42
2019-05-06T12:09:16.340Z,1.52
2019-05-06T12:11:44.818Z,1.12
2019-05-06T12:16:47.921Z,1.12
2019-05-06T12:21:51.151Z,1.22
2019-05-06T12:29:26.979Z,1.40
2019-05-06T12:32:22.575Z,1.22
2019-05-06T12:34:56.279Z,1.20
2019-05-06T12:40:00.458Z,0.78
2019-05-06T12:42:35.459Z,1.30
2019-05-06T12:45:26.861Z,1.57
2019-05-06T12:48:07.967Z,1.22
2019-05-06T12:50:43.088Z,1.10
2019-05-06T12:53:14.960Z,1.47
2019-05-06T12:55:47.869Z,1.60
2019-05-06T12:58:23.273Z,1.20
2019-05-06T13:00:56.530Z,1.35
2019-05-06T13:03:31.690Z,1.20
2019-05-06T13:06:07.261Z,1.67
2019-05-06T13:08:54.035Z,0.98
2019-05-06T13:11:13.228Z,0.90
2019-05-06T13:13:56.721Z,1.07
2019-05-06T13:16:19.759Z,0.80
2019-05-06T13:18:54.693Z,1.07
2019-05-06T13:21:25.449Z,0.90
2019-05-06T13:24:04.375Z,1.05
2019-05-06T13:26:35.957Z,0.93
2019-05-06T13:29:26.858Z,0.90
2019-05-06T13:32:01.986Z,0.90
2019-05-06T13:34:39.904Z,1.00
2019-05-06T13:37:13.803Z,0.80
2019-05-06T13:39:46.189Z,1.20
2019-05-06T13:42:22.488Z,1.00
2019-05-06T13:44:53.968Z,0.82
2019-05-06T13:50:18.129Z,0.90
2019-05-06T13:53:07.799Z,1.00
2019-05-06T13:55:24.658Z,0.90
2019-05-06T13:57:56.799Z,1.05
2019-05-06T14:00:29.419Z,1.20
2019-05-06T14:03:02.204Z,1.22
2019-05-06T14:05:34.281Z,0.90
2019-05-06T14:08:06.312Z,0.98
2019-05-06T14:13:12.764Z,1.20
2019-05-06T14:15:44.259Z,1.65
2019-05-06T14:20:48.579Z,0.90
2019-05-06T14:23:22.114Z,1.30
2019-05-06T14:26:16.307Z,1.30
2019-05-06T14:28:58.981Z,0.90
2019-05-06T14:31:44.438Z,1.17
2019-05-06T14:34:16.962Z,0.88
2019-05-06T14:36:50.220Z,1.00
2019-05-06T14:42:04.053Z,0.70
2019-05-06T14:44:36.709Z,1.17
2019-05-06T14:47:23.719Z,1.22
2019-05-06T14:49:58.530Z,1.10
2019-05-06T14:52:33.382Z,0.98
2019-05-06T14:55:22.164Z,0.98
2019-05-06T14:57:53.609Z,1.02
2019-05-06T15:00:29.419Z,0.95
2019-05-06T15:03:02.924Z,1.20
2019-05-06T15:05:36.297Z,0.70
2019-05-06T15:08:12.585Z,1.10
2019-05-06T15:10:49.433Z,0.90
2019-05-06T15:13:22.837Z,0.60
2019-05-06T15:15:56.318Z,1.20
2019-05-06T15:18:28.482Z,1.15
2019-05-06T15:21:28.701Z,0.90
2019-05-06T15:23:37.700Z,0.98
2019-05-06T15:26:12.213Z,1.12
2019-05-06T15:28:45.799Z,0.95
2019-05-06T15:31:30.858Z,0.82
2019-05-06T15:34:05.039Z,1.35
2019-05-06T15:36:44.568Z,1.47
2019-05-06T15:39:19.117Z,1.15
2019-05-06T15:41:57.258Z,1.22
2019-05-06T15:44:33.037Z,1.17
2019-05-06T15:47:06.589Z,0.72
2019-05-06T15:49:38.542Z,0.80
2019-05-06T15:52:12.587Z,1.92
2019-05-06T15:54:44.819Z,1.60
2019-05-06T15:59:48.149Z,1.30
2019-05-06T16:04:55.978Z,1.10
2019-05-06T16:07:28.168Z,1.25
2019-05-06T16:12:31.450Z,1.65
2019-05-06T16:20:07.679Z,1.45
2019-05-06T16:22:44.245Z,1.72
2019-05-06T16:25:15.519Z,1.30
2019-05-06T16:27:54.496Z,1.45
2019-05-06T16:30:27.895Z,1.20
2019-05-06T16:33:00.639Z,1.50
2019-05-06T16:35:33.178Z,1.75
2019-05-06T16:38:06.479Z,2.10
2019-05-06T16:43:09.408Z,2.67
2019-05-06T16:45:42.751Z,2.50
2019-05-06T16:48:15.398Z,2.12
2019-05-06T16:50:47.769Z,1.92
2019-05-06T16:53:19.951Z,1.40
2019-05-06T16:58:34.231Z,1.02
2019-05-06T17:01:08.258Z,1.57
2019-05-06T17:04:14.276Z,1.47
2019-05-06T17:06:45.878Z,1.12
2019-05-06T17:09:32.516Z,1.37
2019-05-06T17:12:04.684Z,1.12
2019-05-06T17:14:36.859Z,1.55
2019-05-06T17:17:08.921Z,1.45
2019-05-06T17:19:42.198Z,1.98
2019-05-06T17:22:14.496Z,2.12
2019-05-06T17:24:48.551Z,2.12
2019-05-06T17:27:23.580Z,1.82
2019-05-06T17:30:09.740Z,2.05
2019-05-06T17:32:45.568Z,1.90
2019-05-06T17:35:18.081Z,1.90
2019-05-06T17:38:06.441Z,1.95
2019-05-06T17:40:38.787Z,2.42
2019-05-06T17:45:59.410Z,1.70
2019-05-06T17:48:52.859Z,3.15
2019-05-06T17:51:37.445Z,3.60
2019-05-06T17:54:26.293Z,5.08
2019-05-06T17:57:48.588Z,2.30
2019-05-06T18:00:52.997Z,3.47
2019-05-06T18:03:25.712Z,2.80
2019-05-06T18:06:22.969Z,3.62
2019-05-06T18:09:15.938Z,3.62
2019-05-06T18:11:59.605Z,4.58
2019-05-06T18:14:40.684Z,4.08
2019-05-06T18:17:17.242Z,3.30
2019-05-06T18:19:54.148Z,2.67
2019-05-06T18:22:28.292Z,14.58
2019-05-06T18:25:05.501Z,8.25
2019-05-06T18:27:43.148Z,2.77
2019-05-06T18:30:28.286Z,2.60
2019-05-06T18:32:57.438Z,4.62
2019-05-06T18:35:30.197Z,2.30
2019-05-06T18:38:02.973Z,2.22
2019-05-06T18:40:36.218Z,2.40
2019-05-06T18:43:08.748Z,1.92
2019-05-06T18:45:41.946Z,1.98
2019-05-06T18:48:13.998Z,2.35
2019-05-06T18:50:46.106Z,1.92
2019-05-06T18:53:19.158Z,2.22
2019-05-06T18:55:54.789Z,3.33
2019-05-06T18:58:29.092Z,2.17
2019-05-06T19:01:03.786Z,2.67
2019-05-06T19:04:03.438Z,1.98
2019-05-06T19:06:35.839Z,2.37
2019-05-06T19:09:22.998Z,2.72
2019-05-06T19:11:55.179Z,2.65
2019-05-06T19:14:27.388Z,2.87
2019-05-06T19:19:34.164Z,1.87
2019-05-06T19:22:03.938Z,2.55
2019-05-06T19:24:36.318Z,2.20
2019-05-06T19:27:08.492Z,2.33
2019-05-06T19:32:12.358Z,2.20
2019-05-06T19:34:44.299Z,2.50
2019-05-06T19:37:16.308Z,2.40
2019-05-06T19:39:48.338Z,2.35
2019-05-06T19:42:22.392Z,2.45
2019-05-06T19:44:54.259Z,2.62
2019-05-06T19:47:31.884Z,2.33
2019-05-06T19:50:07.187Z,2.08
2019-05-06T19:52:39.236Z,2.27
2019-05-06T19:55:12.373Z,2.47
2019-05-06T19:57:44.679Z,2.10
2019-05-06T20:00:22.812Z,2.40
2019-05-06T20:02:58.638Z,2.60
2019-05-06T20:05:39.473Z,2.37
2019-05-06T20:08:17.869Z,2.25
2019-05-06T20:11:13.132Z,2.37
2019-05-06T20:13:45.528Z,2.17
2019-05-06T20:18:48.478Z,3.35
2019-05-06T20:21:22.906Z,3.12
2019-05-06T20:23:54.392Z,3.30
2019-05-06T20:26:26.450Z,2.95
2019-05-06T20:28:58.445Z,3.02
2019-05-06T20:31:32.128Z,2.90
2019-05-06T20:34:04.348Z,3.55
2019-05-06T20:36:37.088Z,2.35
2019-05-06T20:39:11.837Z,2.65
2019-05-06T20:41:43.298Z,3.08
2019-05-06T20:44:15.269Z,3.00
2019-05-06T20:46:47.503Z,3.00
2019-05-06T20:51:52.130Z,3.60
2019-05-06T20:54:24.119Z,4.08
2019-05-06T20:59:28.428Z,4.90
2019-05-06T21:02:00.580Z,3.20
2019-05-06T21:07:04.517Z,3.12
2019-05-06T21:12:07.738Z,3.72
2019-05-06T21:14:42.096Z,3.25
2019-05-06T21:17:14.368Z,3.02
2019-05-06T21:19:46.408Z,2.72
2019-05-06T21:24:49.558Z,3.70
2019-05-06T21:32:25.268Z,3.98
2019-05-06T21:37:28.238Z,3.47
2019-05-06T21:40:00.104Z,5.28
2019-05-06T21:42:32.610Z,4.47
2019-05-06T21:45:05.614Z,4.78
2019-05-06T21:47:37.629Z,4.22
2019-05-06T21:50:12.057Z,4.92
2019-05-06T21:52:43.912Z,4.92
2019-05-06T21:55:16.038Z,4.33
2019-05-06T22:00:23.387Z,4.37
2019-05-06T22:02:57.039Z,3.95
2019-05-06T22:05:29.119Z,4.25
2019-05-06T22:08:01.881Z,4.17
2019-05-06T22:10:34.538Z,4.30
2019-05-06T22:13:06.528Z,4.28
2019-05-06T22:15:42.072Z,4.70
2019-05-06T22:18:14.135Z,3.90
2019-05-06T22:21:04.068Z,3.80
2019-05-06T22:23:53.089Z,3.83
2019-05-06T22:26:25.538Z,3.45
2019-05-06T22:28:57.912Z,4.12
2019-05-06T22:31:29.738Z,3.98
2019-05-06T22:34:01.646Z,4.33
2019-05-06T22:36:33.940Z,4.08
2019-05-06T22:41:39.919Z,4.00
2019-05-06T22:44:13.980Z,5.92
2019-05-06T22:46:45.822Z,4.28
2019-05-06T22:49:17.878Z,3.80
2019-05-06T22:51:52.125Z,3.67
2019-05-06T22:54:24.635Z,3.60
2019-05-06T22:56:56.968Z,3.72
2019-05-06T22:59:29.758Z,4.05
2019-05-06T23:04:57.588Z,3.47
2019-05-06T23:07:29.907Z,4.50
2019-05-06T23:10:02.086Z,4.65
2019-05-06T23:15:06.708Z,4.00
2019-05-06T23:17:39.068Z,5.00
2019-05-06T23:22:42.372Z,4.70
2019-05-06T23:25:14.822Z,5.47
